Time;durP1;ratioP1;P1;durP2;ratioP2;P2;SDS_P1;SDS_P2;PMS_P1;PMS_P2;Temp;Humidity;BMP_temperature;BMP_pressure;BME280_temperature;BME280_humidity;BME280_pressure;Samples;Min_cycle;Max_cycle;Signal;HPM_P1;HPM_P2
2021/12/16 00:01:47;;;;;;;53.08;26.77;;;;;;;2.36;100.00;101870.47;6748921;26;34851;-70
2021/12/16 00:05:21;;;;;;;51.15;25.27;;;;;;;2.28;100.00;101872.62;6730444;26;34449;-70
2021/12/16 00:08:37;;;;;;;54.83;25.95;;;;;;;2.12;100.00;101873.44;6729060;26;34980;-70
2021/12/16 00:31:52;;;;;;;59.63;28.02;;;;;;;1.19;100.00;101887.56;6748820;26;34935;-70
2021/12/16 00:34:55;;;;;;;67.43;29.87;;;;;;;1.06;100.00;101891.66;6740778;26;34932;-70
2021/12/16 00:37:58;;;;;;;65.47;30.12;;;;;;;1.07;100.00;101893.34;6739222;26;34674;-70
2021/12/16 00:41:01;;;;;;;57.88;29.15;;;;;;;0.94;100.00;101900.06;6748962;26;34190;-70
2021/12/16 00:47:32;;;;;;;60.10;31.02;;;;;;;0.70;100.00;101898.53;6748949;26;34215;-70
2021/12/16 00:57:06;;;;;;;63.75;30.02;;;;;;;0.52;100.00;101886.28;6748753;26;34381;-70
2021/12/16 01:00:14;;;;;;;62.83;29.55;;;;;;;0.40;100.00;101885.06;6748812;26;34660;-70
2021/12/16 01:03:35;;;;;;;66.37;29.40;;;;;;;0.31;100.00;101891.53;6749273;26;34231;-70
2021/12/16 01:07:42;;;;;;;;;;;;;;;0.32;100.00;101889.75;6748776;26;34370;-70
2021/12/16 01:50:35;;;;;;;59.45;29.12;;;;;;;0.44;100.00;101857.88;6748572;26;34932;-71
2021/12/16 01:57:29;;;;;;;65.30;30.10;;;;;;;0.30;100.00;101861.09;6748411;26;34351;-71
2021/12/16 02:00:28;;;;;;;69.70;30.75;;;;;;;0.26;100.00;101858.69;6746439;26;34991;-71
2021/12/16 02:03:47;;;;;;;68.60;31.27;;;;;;;0.20;100.00;101857.19;6748440;26;34949;-71
2021/12/16 02:10:04;;;;;;;69.90;30.27;;;;;;;0.16;100.00;101854.78;6748221;26;34450;-71
2021/12/16 02:32:52;;;;;;;66.97;33.28;;;;;;;-0.20;100.00;101851.97;6728888;26;35046;-71
2021/12/16 02:36:13;;;;;;;72.97;33.38;;;;;;;-0.26;100.00;101860.91;6748436;26;34230;-71
2021/12/16 02:39:29;;;;;;;68.35;31.80;;;;;;;-0.33;100.00;101856.81;6748371;26;34274;-71
2021/12/16 02:42:38;;;;;;;75.80;33.15;;;;;;;-0.46;100.00;101853.03;6748051;26;34718;-71
2021/12/16 02:49:04;;;;;;;65.90;31.23;;;;;;;-0.68;100.00;101841.78;6747955;26;34944;-71
2021/12/16 02:52:11;;;;;;;68.62;33.45;;;;;;;-0.74;100.00;101850.69;6747958;26;34943;-72
2021/12/16 02:55:18;;;;;;;73.80;35.05;;;;;;;-0.81;100.00;101846.59;6747992;26;34267;-72
2021/12/16 02:58:22;;;;;;;76.97;35.90;;;;;;;-0.87;100.00;101839.00;6747981;26;34201;-72
2021/12/16 03:01:34;;;;;;;80.30;35.97;;;;;;;-0.92;100.00;101828.75;6747901;26;34326;-71
2021/12/16 03:04:41;;;;;;;73.62;34.97;;;;;;;-0.88;100.00;101825.16;6747819;26;34206;-71
2021/12/16 03:07:44;;;;;;;81.87;37.75;;;;;;;-0.82;100.00;101816.22;6748227;26;34905;-71
2021/12/16 03:17:24;;;;;;;76.03;38.22;;;;;;;-0.77;100.00;101819.50;6747833;26;34968;-71
2021/12/16 03:20:50;;;;;;;76.35;36.03;;;;;;;-0.71;100.00;101815.81;6747781;26;34364;-71
2021/12/16 03:30:43;;;;;;;71.75;36.65;;;;;;;-0.53;100.00;101825.50;6748365;26;34923;-71
2021/12/16 03:37:18;;;;;;;72.65;35.70;;;;;;;-0.39;100.00;101830.19;6749153;26;34929;-72
2021/12/16 03:40:21;;;;;;;74.40;37.75;;;;;;;-0.39;100.00;101825.81;6749565;26;34536;-71
2021/12/16 03:43:24;;;;;;;78.93;38.92;;;;;;;-0.21;100.00;101814.62;6749020;26;34696;-72
2021/12/16 03:46:33;;;;;;;77.70;36.72;;;;;;;-0.23;100.00;101826.84;6749435;26;34266;-71
2021/12/16 03:49:36;;;;;;;78.37;37.45;;;;;;;-0.15;100.00;101822.19;6749134;26;34317;-71
2021/12/16 03:52:40;;;;;;;70.65;34.97;;;;;;;-0.18;100.00;101827.50;6749465;26;34870;-71
2021/12/16 03:55:45;;;;;;;75.53;36.20;;;;;;;-0.17;100.00;101818.78;6748983;26;34221;-71
2021/12/16 03:58:49;;;;;;;75.87;35.85;;;;;;;-0.09;100.00;101829.72;6749013;26;34896;-71
2021/12/16 04:01:54;;;;;;;68.18;33.95;;;;;;;-0.03;100.00;101833.84;6748992;26;34501;-71
2021/12/16 04:04:59;;;;;;;70.65;34.55;;;;;;;-0.01;100.00;101826.81;6748891;26;34359;-71
2021/12/16 04:08:05;;;;;;;72.55;36.05;;;;;;;0.03;100.00;101830.97;6749452;26;34944;-71
2021/12/16 04:11:19;;;;;;;82.78;37.70;;;;;;;0.00;100.00;101828.53;6748962;26;34720;-71
2021/12/16 04:14:24;;;;;;;73.40;37.63;;;;;;;0.06;100.00;101827.38;6749408;26;34321;-72
2021/12/16 04:17:31;;;;;;;71.90;36.30;;;;;;;0.10;100.00;101829.78;6749075;26;34938;-71
2021/12/16 04:20:34;;;;;;;82.10;36.47;;;;;;;0.17;100.00;101827.78;6729572;26;34391;-72
2021/12/16 04:23:37;;;;;;;75.50;37.72;;;;;;;0.25;100.00;101823.91;6749604;26;34785;-70
2021/12/16 04:26:43;;;;;;;74.12;36.22;;;;;;;0.25;100.00;101823.91;6749340;26;34235;-72
2021/12/16 04:29:48;;;;;;;72.85;36.08;;;;;;;0.31;100.00;101838.47;6749263;26;34954;-72
2021/12/16 04:32:52;;;;;;;69.50;34.92;;;;;;;0.35;100.00;101826.97;6749386;26;34240;-71
2021/12/16 04:35:55;;;;;;;69.68;35.72;;;;;;;0.34;100.00;101835.72;6749259;26;34393;-71
2021/12/16 04:38:58;;;;;;;79.03;38.22;;;;;;;0.38;100.00;101830.31;6748694;26;34351;-71
2021/12/16 04:42:08;;;;;;;79.87;36.90;;;;;;;0.43;100.00;101832.72;6730035;26;35013;-71
2021/12/16 04:45:15;;;;;;;79.28;39.85;;;;;;;0.35;100.00;101824.34;6749304;26;35014;-71
2021/12/16 04:48:19;;;;;;;81.32;38.90;;;;;;;0.25;100.00;101826.53;6749179;26;34974;-71
2021/12/16 04:51:26;;;;;;;87.68;39.40;;;;;;;0.34;100.00;101820.03;6748785;26;34263;-71
2021/12/16 04:54:29;;;;;;;84.37;39.50;;;;;;;0.40;100.00;101809.34;6748737;26;34511;-71
2021/12/16 04:57:33;;;;;;;81.82;39.10;;;;;;;0.47;100.00;101810.78;6729167;26;35499;-71
2021/12/16 05:00:37;;;;;;;87.68;41.17;;;;;;;0.47;100.00;101807.31;6749023;26;34866;-71
2021/12/16 05:03:42;;;;;;;81.78;38.75;;;;;;;0.38;100.00;101809.44;6749020;26;34952;-72
2021/12/16 05:06:46;;;;;;;75.57;38.00;;;;;;;0.57;100.00;101809.47;6749188;26;34268;-71
2021/12/16 05:10:05;;;;;;;82.72;38.47;;;;;;;0.68;100.00;101814.16;6728859;26;34879;-71
2021/12/16 05:13:08;;;;;;;74.05;37.30;;;;;;;0.68;100.00;101804.56;6748765;26;34350;-71
2021/12/16 05:16:13;;;;;;;76.20;36.47;;;;;;;0.72;100.00;101818.38;6748678;26;34280;-71
2021/12/16 05:19:20;;;;;;;86.35;37.65;;;;;;;0.79;100.00;101807.56;6729314;26;34909;-72
2021/12/16 05:28:55;;;;;;;62.70;33.38;;;;;;;1.08;100.00;101821.03;6749188;26;35093;-72
2021/12/16 05:31:59;;;;;;;71.22;34.03;;;;;;;1.09;100.00;101818.34;6748881;26;34649;-72
2021/12/16 05:35:04;;;;;;;70.50;34.72;;;;;;;1.14;100.00;101825.97;6738191;26;34188;-72
2021/12/16 05:38:08;;;;;;;69.03;34.08;;;;;;;1.18;100.00;101830.13;6741275;26;34504;-72
2021/12/16 05:41:14;;;;;;;71.40;34.40;;;;;;;1.15;100.00;101828.50;6748958;26;34237;-72
2021/12/16 05:44:18;;;;;;;72.55;33.92;;;;;;;1.25;100.00;101836.78;6748972;26;34197;-72
2021/12/16 05:47:22;;;;;;;65.20;35.63;;;;;;;1.17;100.00;101842.34;6728442;26;34350;-72
2021/12/16 05:50:29;;;;;;;68.18;32.85;;;;;;;1.12;100.00;101840.84;6747824;26;34257;-72
2021/12/16 05:53:32;;;;;;;69.75;34.28;;;;;;;1.05;100.00;101832.47;6748183;26;34857;-72
2021/12/16 05:56:41;;;;;;;74.72;34.55;;;;;;;1.02;100.00;101844.81;6748744;26;34219;-72
2021/12/16 05:59:50;;;;;;;70.62;34.92;;;;;;;0.90;100.00;101845.41;6748508;26;34354;-72
2021/12/16 06:02:58;;;;;;;66.93;33.35;;;;;;;0.92;100.00;101841.78;6729400;26;34864;-71
2021/12/16 06:06:02;;;;;;;72.20;32.75;;;;;;;0.85;100.00;101838.62;6748851;26;34492;-72
2021/12/16 06:09:08;;;;;;;69.40;33.10;;;;;;;0.98;100.00;101838.03;6748171;26;34924;-72
2021/12/16 06:12:12;;;;;;;66.35;33.13;;;;;;;1.00;100.00;101829.22;6747962;26;34906;-72
2021/12/16 06:15:22;;;;;;;59.10;31.08;;;;;;;1.05;100.00;101834.25;6748241;26;34833;-72
2021/12/16 06:29:11;;;;;;;70.65;31.83;;;;;;;0.99;100.00;101843.22;6748219;26;34448;-72
2021/12/16 06:32:14;;;;;;;70.28;31.83;;;;;;;0.86;100.00;101844.69;6747455;26;35255;-72
2021/12/16 06:35:18;;;;;;;68.78;31.73;;;;;;;0.75;100.00;101842.56;6732579;26;34319;-72
2021/12/16 06:38:22;;;;;;;71.95;32.35;;;;;;;0.72;100.00;101844.47;6745504;26;34179;-72
2021/12/16 06:41:28;;;;;;;72.12;31.17;;;;;;;0.75;100.00;101846.94;6748055;26;35417;-73
2021/12/16 06:44:40;;;;;;;62.60;30.55;;;;;;;0.71;100.00;101848.84;6747947;26;34731;-73
2021/12/16 06:47:49;;;;;;;;;;;;;;;0.87;100.00;101847.22;6748409;26;34849;-72
2021/12/16 06:50:59;;;;;;;66.37;30.37;;;;;;;0.93;100.00;101851.31;6747684;26;35074;-72
2021/12/16 06:54:06;;;;;;;64.47;30.62;;;;;;;1.02;100.00;101853.50;6747851;26;34750;-73
2021/12/16 06:57:24;;;;;;;61.83;29.80;;;;;;;0.91;100.00;101857.53;6747375;26;34679;-72
2021/12/16 07:00:37;;;;;;;64.90;31.20;;;;;;;0.98;100.00;101862.41;6747756;26;34421;-73
2021/12/16 07:03:47;;;;;;;65.68;30.12;;;;;;;1.07;100.00;101867.22;6747845;26;34635;-73
2021/12/16 07:06:50;;;;;;;61.28;30.48;;;;;;;1.14;100.00;101866.03;6748513;26;34459;-73
2021/12/16 07:09:53;;;;;;;58.53;29.65;;;;;;;1.22;100.00;101865.66;6748251;26;34517;-73
2021/12/16 07:13:00;;;;;;;67.78;30.50;;;;;;;1.35;100.00;101863.31;6749070;26;34220;-72
2021/12/16 07:16:04;;;;;;;65.75;30.95;;;;;;;1.35;100.00;101869.41;6748567;26;34231;-73
2021/12/16 07:19:06;;;;;;;62.03;30.35;;;;;;;1.53;100.00;101867.66;6748080;26;35000;-72
2021/12/16 07:22:11;;;;;;;67.28;32.13;;;;;;;1.56;100.00;101857.91;6748724;26;34438;-73
2021/12/16 07:25:14;;;;;;;63.53;29.67;;;;;;;1.58;100.00;101865.69;6748757;26;34312;-72
2021/12/16 07:28:17;;;;;;;62.15;30.85;;;;;;;1.68;100.00;101869.53;6749213;26;34230;-73
2021/12/16 07:31:20;;;;;;;80.00;32.72;;;;;;;1.62;100.00;101862.00;6748921;26;35033;-73
2021/12/16 07:34:30;;;;;;;81.35;34.53;;;;;;;1.51;100.00;101865.13;6749069;26;34728;-73
2021/12/16 07:37:33;;;;;;;78.90;36.40;;;;;;;1.40;100.00;101856.97;6749050;26;34636;-72
2021/12/16 07:40:38;;;;;;;87.30;36.72;;;;;;;1.41;100.00;101857.78;6749008;26;34891;-72
2021/12/16 07:43:54;;;;;;;82.03;37.25;;;;;;;1.37;100.00;101864.94;6729133;26;34603;-72
2021/12/16 07:47:07;;;;;;;84.40;37.90;;;;;;;1.27;100.00;101858.44;6748685;26;34942;-72
2021/12/16 07:50:12;;;;;;;89.05;39.47;;;;;;;1.20;100.00;101857.91;6748708;26;34703;-73
2021/12/16 07:53:16;;;;;;;84.55;38.50;;;;;;;1.17;100.00;101855.41;6748980;26;34524;-72
2021/12/16 07:56:18;;;;;;;85.03;37.47;;;;;;;1.25;100.00;101852.44;6749058;26;34623;-72
2021/12/16 07:59:23;;;;;;;79.35;33.95;;;;;;;1.39;100.00;101854.41;6748909;26;34179;-73
2021/12/16 08:02:26;;;;;;;73.72;34.17;;;;;;;1.47;100.00;101853.13;6748878;26;34594;-72
2021/12/16 08:05:32;;;;;;;72.18;34.75;;;;;;;1.64;100.00;101858.41;6729058;26;34371;-73
2021/12/16 08:08:35;;;;;;;73.43;33.83;;;;;;;1.65;100.00;101857.44;6748689;26;34732;-73
2021/12/16 08:11:40;;;;;;;68.57;33.03;;;;;;;1.65;100.00;101859.22;6748521;26;34976;-72
2021/12/16 08:14:45;;;;;;;71.53;33.88;;;;;;;1.56;100.00;101859.66;6748552;26;34264;-73
2021/12/16 08:17:48;;;;;;;69.00;30.95;;;;;;;1.64;100.00;101865.38;6748352;26;34230;-72
2021/12/16 08:20:51;;;;;;;68.45;31.95;;;;;;;1.74;100.00;101858.78;6749116;26;35002;-72
2021/12/16 08:23:59;;;;;;;69.32;30.70;;;;;;;1.80;100.00;101855.84;6748835;26;34430;-72
2021/12/16 08:27:01;;;;;;;60.60;28.25;;;;;;;1.70;100.00;101859.84;6748804;26;34856;-72
2021/12/16 08:30:06;;;;;;;62.62;29.02;;;;;;;1.80;100.00;101861.06;6748267;26;34564;-73
2021/12/16 08:33:12;;;;;;;63.72;27.90;;;;;;;1.82;100.00;101867.09;6748669;26;34303;-73
2021/12/16 08:36:15;;;;;;;64.35;27.92;;;;;;;1.90;100.00;101857.09;6748532;26;34309;-73
2021/12/16 08:39:18;;;;;;;66.37;27.70;;;;;;;2.01;100.00;101860.03;6748356;26;34256;-73
2021/12/16 08:42:26;;;;;;;63.05;27.30;;;;;;;2.10;100.00;101854.31;6748801;26;34234;-73
2021/12/16 08:45:31;;;;;;;58.92;25.98;;;;;;;2.24;100.00;101861.47;6748458;26;34302;-73
2021/12/16 08:48:35;;;;;;;63.80;26.62;;;;;;;2.28;100.00;101864.78;6748642;26;34854;-73
2021/12/16 08:51:46;;;;;;;63.38;26.50;;;;;;;2.33;100.00;101861.00;6748598;26;34631;-73
2021/12/16 08:54:50;;;;;;;69.55;27.45;;;;;;;2.44;100.00;101857.81;6748852;26;34842;-73
2021/12/16 08:57:53;;;;;;;66.25;26.27;;;;;;;2.50;100.00;101852.28;6748545;26;34744;-73
2021/12/16 09:01:01;;;;;;;58.15;25.23;;;;;;;2.85;100.00;101856.50;6748501;26;34313;-73
2021/12/16 09:04:05;;;;;;;57.88;24.87;;;;;;;3.09;100.00;101850.84;6748921;26;35022;-73
2021/12/16 09:07:10;;;;;;;53.97;25.58;;;;;;;3.24;100.00;101850.00;6748750;26;35012;-73
2021/12/16 09:10:15;;;;;;;55.42;23.67;;;;;;;3.59;100.00;101842.75;6748663;26;35599;-73
2021/12/16 09:13:19;;;;;;;54.53;23.17;;;;;;;3.76;100.00;101843.50;6748470;26;34921;-73
2021/12/16 09:16:24;;;;;;;52.60;24.17;;;;;;;3.94;100.00;101834.56;6748752;26;34936;-72
2021/12/16 09:19:27;;;;;;;50.50;22.87;;;;;;;3.93;100.00;101834.63;6729085;26;34227;-72
2021/12/16 09:22:30;;;;;;;48.65;23.65;;;;;;;3.85;100.00;101842.97;6748494;26;34163;-73
2021/12/16 09:25:33;;;;;;;51.58;24.67;;;;;;;3.94;100.00;101838.97;6728819;26;34916;-72
2021/12/16 09:28:37;;;;;;;54.75;25.37;;;;;;;3.82;100.00;101837.91;6748064;26;34199;-72
2021/12/16 09:31:40;;;;;;;48.05;24.30;;;;;;;3.69;100.00;101842.16;6748484;26;35027;-73
2021/12/16 09:34:44;;;;;;;51.22;24.33;;;;;;;3.54;100.00;101836.94;6744477;26;34294;-72
2021/12/16 09:37:47;;;;;;;50.85;24.52;;;;;;;3.64;100.00;101846.81;6715471;26;34367;-72
2021/12/16 09:40:54;;;;;;;51.63;24.50;;;;;;;3.68;100.00;101842.25;6748446;26;34660;-73
2021/12/16 09:43:59;;;;;;;48.20;23.90;;;;;;;3.90;100.00;101835.66;6748430;26;34699;-72
2021/12/16 09:47:05;;;;;;;53.90;24.08;;;;;;;3.86;100.00;101836.78;6748448;26;34855;-73
2021/12/16 09:50:10;;;;;;;52.55;25.40;;;;;;;4.01;100.00;101827.19;6748108;26;34546;-72
2021/12/16 09:53:13;;;;;;;71.55;32.20;;;;;;;4.26;100.00;101837.88;6747967;26;34909;-72
2021/12/16 09:56:17;;;;;;;74.75;33.90;;;;;;;4.23;100.00;101838.09;6747880;26;34860;-73
2021/12/16 09:59:23;;;;;;;77.75;34.97;;;;;;;4.19;100.00;101835.72;6747847;26;34180;-73
2021/12/16 10:02:26;;;;;;;73.87;33.53;;;;;;;4.51;100.00;101832.00;6748345;26;34337;-73
2021/12/16 10:05:31;;;;;;;77.12;35.17;;;;;;;4.51;100.00;101832.00;6748316;26;34302;-73
2021/12/16 10:08:35;;;;;;;56.33;26.80;;;;;;;4.74;100.00;101834.06;6748171;26;34857;-73
2021/12/16 10:11:43;;;;;;;59.25;27.33;;;;;;;5.01;100.00;101822.78;6747947;26;34250;-73
2021/12/16 10:18:06;;;;;;;50.97;23.12;;;;;;;5.31;100.00;101826.09;6748687;26;34884;-72
2021/12/16 10:21:09;;;;;;;52.55;23.73;;;;;;;5.63;100.00;101818.72;6748599;26;34926;-73
2021/12/16 10:24:28;;;;;;;57.83;26.73;;;;;;;5.42;100.00;101820.13;6748233;26;34257;-72
2021/12/16 10:27:32;;;;;;;58.42;26.17;;;;;;;5.06;100.00;101808.38;6750470;26;34943;-72
2021/12/16 10:30:48;;;;;;;50.63;26.27;;;;;;;5.44;100.00;101802.44;6748406;26;34450;-72
2021/12/16 10:33:59;;;;;;;52.08;26.15;;;;;;;4.81;100.00;101798.56;6748235;26;34982;-72
2021/12/16 10:37:03;;;;;;;49.67;24.90;;;;;;;5.38;100.00;101801.03;6747885;26;34284;-72
2021/12/16 10:40:24;;;;;;;46.88;23.38;;;;;;;5.92;100.00;101799.22;6748469;26;34891;-72
2021/12/16 10:43:49;;;;;;;47.47;22.92;;;;;;;5.94;100.00;101812.28;6749177;26;34216;-72
2021/12/16 10:47:00;;;;;;;43.08;20.90;;;;;;;5.40;100.00;101795.69;6749207;26;34260;-72
2021/12/16 10:50:13;;;;;;;48.10;24.17;;;;;;;5.37;100.00;101794.12;6729544;26;34267;-72
2021/12/16 10:53:56;;;;;;;48.03;23.42;;;;;;;4.99;100.00;101791.28;6750920;26;34224;-70
2021/12/16 10:57:09;;;;;;;50.40;24.23;;;;;;;5.01;100.00;101789.44;6757339;26;36812;-71
2021/12/16 11:00:18;;;;;;;45.38;22.95;;;;;;;5.24;100.00;101793.19;6756710;26;35137;-70
2021/12/16 11:03:53;;;;;;;49.78;22.48;;;;;;;5.47;100.00;101789.09;6751648;26;34677;-72
2021/12/16 11:07:06;;;;;;;47.30;22.15;;;;;;;5.54;100.00;101800.88;6687978;26;34299;-72
2021/12/16 11:10:21;;;;;;;39.78;19.25;;;;;;;5.52;100.00;101782.56;6749133;26;34246;-72
2021/12/16 11:13:30;;;;;;;39.90;18.67;;;;;;;5.46;100.00;101790.88;6749095;26;34543;-72
2021/12/16 11:16:35;;;;;;;39.40;19.70;;;;;;;5.37;100.00;101790.63;6748953;26;34382;-72
2021/12/16 11:19:46;;;;;;;42.62;19.45;;;;;;;5.28;100.00;101791.25;6749472;26;34918;-72
2021/12/16 11:23:02;;;;;;;43.85;18.50;;;;;;;5.23;100.00;101783.63;6749142;26;34917;-71
2021/12/16 11:26:17;;;;;;;38.72;19.10;;;;;;;5.19;100.00;101784.75;6748856;26;34401;-72
2021/12/16 11:29:22;;;;;;;43.72;20.75;;;;;;;5.20;100.00;101776.78;6748533;26;34911;-73
2021/12/16 11:32:41;;;;;;;42.38;20.92;;;;;;;5.17;100.00;101769.09;6749068;26;34439;-72
2021/12/16 11:35:56;;;;;;;44.97;20.70;;;;;;;5.59;100.00;101777.75;6730305;26;35602;-72
2021/12/16 11:39:01;;;;;;;40.45;18.52;;;;;;;5.78;100.00;101778.19;6748609;26;34949;-72
2021/12/16 11:42:04;;;;;;;41.75;19.52;;;;;;;5.91;100.00;101772.97;6748988;26;34958;-72
2021/12/16 11:45:07;;;;;;;39.67;19.58;;;;;;;5.84;100.00;101769.91;6748980;26;34977;-72
2021/12/16 11:48:28;;;;;;;40.40;19.08;;;;;;;5.76;100.00;101764.28;6748827;26;35011;-72
2021/12/16 11:51:59;;;;;;;44.13;19.37;;;;;;;5.68;100.00;101759.53;6748842;26;33679;-72
2021/12/16 11:55:10;;;;;;;38.72;18.50;;;;;;;5.78;100.00;101753.66;6701593;26;34657;-72
2021/12/16 11:58:13;;;;;;;45.53;20.25;;;;;;;5.86;100.00;101753.97;6749290;26;34985;-72
2021/12/16 12:01:22;;;;;;;40.90;19.05;;;;;;;5.61;100.00;101749.53;6748669;26;34723;-72
2021/12/16 12:04:29;;;;;;;37.25;18.62;;;;;;;5.55;100.00;101749.94;6749228;26;34183;-72
2021/12/16 12:07:39;;;;;;;37.80;18.95;;;;;;;5.57;100.00;101742.75;6748978;26;34690;-73
2021/12/16 12:11:13;;;;;;;37.20;18.15;;;;;;;5.78;100.00;101746.59;6748803;26;34751;-72
2021/12/16 12:14:20;;;;;;;34.72;16.80;;;;;;;5.71;100.00;101749.75;6748621;26;34396;-72
2021/12/16 12:17:23;;;;;;;37.00;17.73;;;;;;;6.03;100.00;101751.94;6748864;26;34269;-72
2021/12/16 12:20:30;;;;;;;37.38;18.87;;;;;;;6.08;100.00;101759.50;6729211;26;34187;-72
2021/12/16 12:23:33;;;;;;;35.17;18.95;;;;;;;6.19;100.00;101757.00;6748724;26;34407;-71
2021/12/16 12:26:41;;;;;;;40.80;19.37;;;;;;;6.20;100.00;101749.91;6749074;26;34984;-72
2021/12/16 12:29:52;;;;;;;40.53;18.35;;;;;;;6.35;100.00;101754.94;6748767;26;34921;-71
2021/12/16 12:32:54;;;;;;;35.85;17.95;;;;;;;6.15;100.00;101742.31;6748735;26;34858;-72
2021/12/16 12:35:57;;;;;;;37.75;18.83;;;;;;;6.01;100.00;101747.69;6748703;26;34855;-72
2021/12/16 12:39:03;;;;;;;37.45;18.08;;;;;;;5.93;100.00;101747.38;6748592;26;34761;-71
2021/12/16 12:42:07;;;;;;;36.38;17.50;;;;;;;5.96;100.00;101744.53;6748934;26;35507;-72
2021/12/16 12:45:11;;;;;;;35.40;18.27;;;;;;;5.93;100.00;101744.75;6748765;26;34888;-72
2021/12/16 12:48:18;;;;;;;33.13;16.30;;;;;;;6.08;100.00;101754.25;6748218;26;34179;-71
2021/12/16 12:51:37;;;;;;;35.67;17.98;;;;;;;5.98;100.00;101758.44;6748410;26;34937;-71
2021/12/16 12:54:43;;;;;;;36.47;18.12;;;;;;;6.17;100.00;101740.44;6748668;26;34319;-72
2021/12/16 12:57:47;;;;;;;38.15;17.67;;;;;;;6.28;100.00;101743.19;6749026;26;34887;-71
2021/12/16 13:01:04;;;;;;;39.55;18.02;;;;;;;6.27;100.00;101744.12;6749095;26;34342;-72
2021/12/16 13:04:42;;;;;;;37.10;17.87;;;;;;;6.24;100.00;101740.84;6748737;26;34908;-71
2021/12/16 13:07:58;;;;;;;33.50;17.23;;;;;;;6.01;100.00;101745.06;6744355;26;34097;-71
2021/12/16 13:11:06;;;;;;;33.05;17.58;;;;;;;5.99;100.00;101750.47;6748726;26;34853;-71
2021/12/16 13:14:15;;;;;;;33.25;16.92;;;;;;;5.69;100.00;101749.84;6748694;26;34878;-71
2021/12/16 13:27:48;;;;;;;30.77;17.15;;;;;;;5.66;100.00;101756.16;6749124;26;34317;-72
2021/12/16 13:31:00;;;;;;;36.05;18.20;;;;;;;5.61;100.00;101760.06;6748514;26;34362;-71
2021/12/16 13:34:03;;;;;;;33.75;17.75;;;;;;;5.55;100.00;101760.47;6748413;26;34703;-71
2021/12/16 13:37:11;;;;;;;32.28;17.10;;;;;;;5.53;100.00;101749.19;6749127;26;34911;-71
2021/12/16 13:40:14;;;;;;;31.27;16.62;;;;;;;5.63;100.00;101759.00;6748278;26;34934;-71
2021/12/16 13:43:20;;;;;;;31.60;16.85;;;;;;;5.65;100.00;101764.19;6748392;26;34662;-72
2021/12/16 14:07:02;;;;;;;29.58;16.30;;;;;;;5.38;100.00;101766.84;6748359;26;35058;-71
2021/12/16 14:10:20;;;;;;;35.00;17.52;;;;;;;5.39;100.00;101763.25;6748658;26;34179;-71
2021/12/16 14:23:22;;;;;;;31.25;15.77;;;;;;;5.37;100.00;101777.47;6748185;26;35055;-72
2021/12/16 14:43:30;;;;;;;32.08;16.37;;;;;;;5.10;100.00;101761.69;6688875;26;34873;-71
2021/12/16 14:46:39;;;;;;;32.60;16.42;;;;;;;5.09;100.00;101754.72;6688539;26;34539;-71
2021/12/16 14:49:46;;;;;;;31.62;15.95;;;;;;;5.17;100.00;101752.47;6688908;26;34777;-72
2021/12/16 14:52:49;;;;;;;31.20;15.02;;;;;;;5.21;100.00;101767.09;6669883;26;34361;-71
2021/12/16 14:55:56;;;;;;;28.60;14.48;;;;;;;5.14;100.00;101768.44;6689155;26;34674;-71
2021/12/16 14:59:07;;;;;;;31.17;15.70;;;;;;;5.10;100.00;101766.94;6688660;26;35242;-71
2021/12/16 15:02:11;;;;;;;32.03;15.50;;;;;;;5.12;100.00;101765.06;6689143;26;34217;-71
2021/12/16 15:05:31;;;;;;;29.60;15.32;;;;;;;5.21;100.00;101772.37;6688573;26;34285;-71
2021/12/16 15:11:56;;;;;;;27.17;14.27;;;;;;;5.08;100.00;101766.22;6688597;26;34784;-71
2021/12/16 15:44:22;;;;;;;23.50;13.15;;;;;;;5.06;100.00;101762.81;6747984;26;34480;-70
2021/12/16 15:47:25;;;;;;;24.75;13.00;;;;;;;5.00;100.00;101757.94;6748654;26;34182;-70
2021/12/16 15:50:36;;;;;;;26.87;13.98;;;;;;;4.91;100.00;101761.19;6748856;26;34932;-70
2021/12/16 15:53:43;;;;;;;24.98;13.93;;;;;;;4.91;100.00;101764.66;6748960;26;34846;-70
2021/12/16 15:56:49;;;;;;;24.10;13.30;;;;;;;4.98;100.00;101762.47;6748430;26;34988;-70
2021/12/16 16:00:22;;;;;;;25.10;13.97;;;;;;;4.96;100.00;101764.34;6729491;26;34676;-70
2021/12/16 16:03:27;;;;;;;45.25;17.12;;;;;;;4.96;100.00;101765.19;6729054;26;34294;-70
2021/12/16 16:06:29;;;;;;;28.23;14.82;;;;;;;4.92;100.00;101773.38;6748885;26;34238;-70
2021/12/16 16:09:42;;;;;;;28.98;14.77;;;;;;;4.95;100.00;101776.66;6748505;26;34969;-70
2021/12/16 16:12:44;;;;;;;25.58;14.50;;;;;;;4.88;100.00;101775.38;6748709;26;34181;-70
2021/12/16 16:15:50;;;;;;;24.83;14.40;;;;;;;4.86;100.00;101769.34;6748638;26;34222;-70
2021/12/16 16:18:56;;;;;;;25.88;14.23;;;;;;;4.86;100.00;101771.12;6748425;26;34556;-70
2021/12/16 16:22:03;;;;;;;26.12;14.27;;;;;;;4.82;100.00;101770.50;6748819;26;34325;-70
2021/12/16 16:25:06;;;;;;;25.27;14.23;;;;;;;4.79;100.00;101774.16;6748980;26;34811;-70
2021/12/16 16:28:11;;;;;;;26.15;14.70;;;;;;;4.97;100.00;101777.41;6748421;26;34576;-70
2021/12/16 16:31:21;;;;;;;25.37;13.32;;;;;;;4.86;100.00;101768.50;6729170;26;34965;-70
2021/12/16 16:34:28;;;;;;;23.53;13.57;;;;;;;5.02;100.00;101766.59;6748576;26;34846;-70
2021/12/16 16:37:33;;;;;;;24.45;13.60;;;;;;;4.99;100.00;101767.62;6748322;26;34318;-70
2021/12/16 16:40:40;;;;;;;22.15;13.20;;;;;;;5.00;100.00;101771.09;6748469;26;34456;-70
2021/12/16 16:43:48;;;;;;;25.10;13.25;;;;;;;5.09;100.00;101771.34;6748631;26;34444;-72
2021/12/16 16:47:09;;;;;;;24.85;13.10;;;;;;;5.11;100.00;101777.38;6748789;26;34311;-72
2021/12/16 16:50:13;;;;;;;25.90;13.48;;;;;;;5.08;100.00;101774.09;6749089;26;34679;-72
2021/12/16 16:53:16;;;;;;;26.58;13.13;;;;;;;5.08;100.00;101774.91;6748737;26;34392;-72
2021/12/16 16:56:43;;;;;;;23.35;13.05;;;;;;;5.15;100.00;101765.72;6728683;26;34184;-71
2021/12/16 17:00:12;;;;;;;24.65;12.93;;;;;;;5.03;100.00;101760.41;6748231;26;35589;-72
2021/12/16 17:03:19;;;;;;;23.55;12.80;;;;;;;5.09;100.00;101766.09;6737085;26;34229;-71
2021/12/16 17:06:22;;;;;;;24.30;13.77;;;;;;;5.13;100.00;101772.03;6748626;26;34925;-72
2021/12/16 17:09:32;;;;;;;26.17;13.40;;;;;;;5.11;100.00;101777.38;6748613;26;34249;-72
2021/12/16 17:12:36;;;;;;;26.65;13.65;;;;;;;5.18;100.00;101781.28;6748330;26;34394;-70
2021/12/16 17:17:11;;;;;;;21.75;13.15;;;;;;;5.17;100.00;101782.25;6748982;26;34743;-70
2021/12/16 17:19:04;;;;;;;24.48;13.30;;;;;;;5.22;100.00;101793.31;6748548;26;35040;-70
2021/12/16 17:22:32;;;;;;;25.95;12.98;;;;;;;5.20;100.00;101781.19;6748848;26;34782;-70
2021/12/16 17:25:35;;;;;;;24.05;13.00;;;;;;;5.04;100.00;101773.44;6748648;26;34579;-70
2021/12/16 17:28:37;;;;;;;24.37;13.65;;;;;;;5.00;100.00;101773.72;6748807;26;34889;-70
2021/12/16 17:31:44;;;;;;;26.33;13.07;;;;;;;5.03;100.00;101770.94;6748598;26;34193;-70
2021/12/16 17:34:59;;;;;;;27.37;13.55;;;;;;;4.98;100.00;101762.47;6742675;26;34548;-70
2021/12/16 17:38:19;;;;;;;23.87;12.90;;;;;;;5.01;100.00;101778.06;6740095;26;34466;-69
2021/12/16 17:41:23;;;;;;;25.80;14.63;;;;;;;4.98;100.00;101768.59;6748587;26;34862;-70
2021/12/16 17:44:28;;;;;;;24.12;13.73;;;;;;;5.00;100.00;101781.63;6748307;26;34997;-70
2021/12/16 17:47:34;;;;;;;23.60;12.55;;;;;;;5.01;100.00;101804.34;6748432;26;34587;-70
2021/12/16 17:50:42;;;;;;;23.87;12.88;;;;;;;4.88;100.00;101792.94;6747764;26;34948;-70
2021/12/16 17:53:52;;;;;;;28.55;13.88;;;;;;;4.89;100.00;101782.28;6748777;26;34838;-70
2021/12/16 17:56:57;;;;;;;;;;;;;;;4.84;100.00;101780.94;6729303;26;34763;-70
2021/12/16 18:00:12;;;;;;;25.02;12.13;;;;;;;4.87;100.00;101781.56;6748587;26;34635;-70
2021/12/16 18:03:28;;;;;;;25.02;13.15;;;;;;;4.76;100.00;101779.59;6748777;26;34702;-71